French Village, Canada
Current Conditions -  °F | °C
As of 7:00 AM on Wednesday 26 Nov 2014 (Local Time) from CYHZ Reporting Station
Overcast Overcast  
Wind Chill:   Ceiling: 15000
Heat Index:   Visibility: 15mi
Dew Point:   Wind: 10mph
Humidity: 66%   Direction: 290°WNW
Pressure: 30.14"   Gusts: NA
Location:  44.7°N, 63.88°W
Report Text: CYHZ 261100Z 29009KT 15SM OVC150 06/M00 A3014 RMK AC8 PRESRR SLP209
Loading
Personal Weather Stations






























Interactive Weather Map New forecast layout! Learn more

10-Day Weather Forecast

Advertisements
Track Severe Weather on mobile